Accueil
METAR-TAF:

METAR-TAF

Aéroports :

Saragosse, Espagne

Aéroport de Saragosse

latitude: 41-40N, longitude: 001-01W, altitude: 263 m

Observation

Le bulletin a été fait il y a 16 minutes, à 08:30 UTC
Vent 9 kt de ouest/nord-ouest, variant entre ouest/sud-ouest et nord/nord-ouest
Température 21°C
Humidité 53%
Pression 1021 hPa
Visibilité 10 km ou plus
pas de nuages en-dessous de 1500 mètres et pas de cumulonimbus.

METAR: LEZG 230830Z 29009KT 250V330 CAVOK 21/11 Q1021

Heure: 10:46 (08:46 UTC)

Prévision

Le bulletin a été fait il y a 3 heures et 46 minutes, à 05:00 UTC
Prévision valable du 23 à 06 UTC au 24 à 06 UTC
Vent 14 kt de ouest/nord-ouest
Visibilité 10 km ou plus
Quelques nuages à une hauteur de 5000 ft
Temporairement
du 23 à 11 UTC au 23 à 18 UTC
Vent 5 kt de direction variable

TAF: LEZG 230500Z 2306/2406 30014KT 9999 FEW050 TX31/2314Z TN15/2306Z TEMPO 2311/2318 VRB05KT

Observations et prévisions météorologiques de plus de 4000 aéroports (messages METAR et TAF).

Les stations disponibles sont représentées par des disques jaunes et rouges sur la carte.

Passer la souris dessus pour voir le nom de la station.

Cliquer dessus pour voir les observations et prévisions météorologiques.

Pour changer de carte: cliquez sur les boutons verts avec une croix noire pour zoomer, sur le bouton vert avec un tiret pour effectuer un zoom arrière, ou sur les flèches vertes pour les cartes adjacentes.


METAR-TAF: